Time;durP1;ratioP1;P1;durP2;ratioP2;P2;SDS_P1;SDS_P2;PMS_P1;PMS_P2;Temp;Humidity;BMP_temperature;BMP_pressure;BME280_temperature;BME280_humidity;BME280_pressure;Samples;Min_cycle;Max_cycle;Signal;HPM_P1;HPM_P2
2023/02/23 00:01:30;;;;;;;;;;;7.10;97.30;;;;;;5119557;27;20259;-84
2023/02/23 00:03:57;;;;;;;8.55;6.80;;;7.10;97.30;;;;;;5133002;27;20381;-83
2023/02/23 00:06:25;;;;;;;7.40;3.13;;;7.10;97.30;;;;;;5116277;27;20422;-84
2023/02/23 00:08:51;;;;;;;10.63;5.40;;;7.10;97.30;;;;;;5119132;27;20404;-84
2023/02/23 00:11:17;;;;;;;7.07;6.67;;;7.10;97.30;;;;;;5126677;27;20397;-83
2023/02/23 00:13:45;;;;;;;5.53;3.67;;;7.10;97.30;;;;;;5120512;27;20176;-84
2023/02/23 00:16:15;;;;;;;6.43;6.07;;;7.10;97.30;;;;;;5135564;27;20503;-85
2023/02/23 00:18:49;;;;;;;8.47;5.97;;;7.10;97.30;;;;;;5122839;27;20959;-84
2023/02/23 00:21:17;;;;;;;8.90;3.97;;;7.10;97.30;;;;;;5134843;27;20502;-84
2023/02/23 00:23:48;;;;;;;9.00;5.10;;;7.10;97.30;;;;;;5126093;27;20429;-83
2023/02/23 00:26:13;;;;;;;9.33;4.07;;;7.10;97.30;;;;;;5144888;27;20760;-84
2023/02/23 00:28:42;;;;;;;10.73;6.30;;;7.10;97.30;;;;;;5130894;27;20451;-84
2023/02/23 00:31:08;;;;;;;5.53;3.20;;;7.20;97.30;;;;;;5109937;27;20322;-84
2023/02/23 00:33:33;;;;;;;8.57;6.33;;;7.10;97.30;;;;;;5117657;27;21017;-81
2023/02/23 00:36:05;;;;;;;3.07;2.87;;;7.20;97.30;;;;;;5135188;27;20469;-84
2023/02/23 00:38:34;;;;;;;7.30;4.17;;;7.10;97.30;;;;;;5141595;27;20683;-84
2023/02/23 00:41:05;;;;;;;13.50;5.13;;;7.10;97.30;;;;;;5120887;27;20530;-83
2023/02/23 00:43:36;;;;;;;13.03;5.50;;;7.10;97.30;;;;;;5114391;27;20227;-85
2023/02/23 00:46:06;;;;;;;5.43;3.97;;;7.10;97.30;;;;;;5127583;27;20231;-83
2023/02/23 00:48:33;;;;;;;5.87;5.10;;;7.10;97.30;;;;;;5119721;27;20426;-83
2023/02/23 00:51:01;;;;;;;15.33;6.77;;;7.10;97.30;;;;;;5127761;27;20529;-84
2023/02/23 00:53:26;;;;;;;11.90;4.37;;;7.10;97.30;;;;;;5122251;27;20393;-82
2023/02/23 00:55:53;;;;;;;15.35;5.95;;;7.10;97.30;;;;;;5122948;27;20426;-85
2023/02/23 00:58:19;;;;;;;8.87;6.50;;;7.10;97.30;;;;;;5138708;27;20171;-84
2023/02/23 01:00:45;;;;;;;6.60;4.87;;;7.10;97.30;;;;;;5120643;27;20444;-84
2023/02/23 01:03:10;;;;;;;5.70;5.33;;;7.00;97.30;;;;;;5121562;27;20172;-85
2023/02/23 01:05:36;;;;;;;9.43;5.00;;;7.00;97.30;;;;;;5120550;27;20312;-84
2023/02/23 01:08:01;;;;;;;6.70;5.90;;;7.00;97.30;;;;;;5148209;27;20193;-84
2023/02/23 01:10:27;;;;;;;10.50;6.63;;;7.00;97.30;;;;;;5113951;27;20239;-84
2023/02/23 01:12:52;;;;;;;8.85;6.10;;;7.00;97.30;;;;;;5117228;27;20176;-82
2023/02/23 01:15:19;;;;;;;5.35;4.50;;;7.00;97.30;;;;;;5116208;27;20246;-84
2023/02/23 01:17:45;;;;;;;4.30;3.60;;;7.00;97.30;;;;;;5116818;27;20508;-85
2023/02/23 01:20:18;;;;;;;10.45;5.80;;;7.00;97.30;;;;;;5140942;27;20430;-85
2023/02/23 01:22:48;;;;;;;6.15;4.60;;;7.00;97.30;;;;;;5116533;27;20412;-85
2023/02/23 01:25:15;;;;;;;17.30;6.20;;;6.90;97.30;;;;;;5116430;27;20924;-85
2023/02/23 01:27:42;;;;;;;12.15;5.10;;;6.90;97.30;;;;;;5115604;27;20746;-84
2023/02/23 01:30:11;;;;;;;10.63;5.43;;;6.90;97.30;;;;;;5115562;27;20418;-85
2023/02/23 01:32:37;;;;;;;6.10;3.50;;;6.90;97.30;;;;;;5120590;27;20417;-84
2023/02/23 01:35:13;;;;;;;7.55;4.90;;;6.90;97.30;;;;;;5123162;27;20421;-83
2023/02/23 01:37:40;;;;;;;9.00;4.60;;;6.90;97.30;;;;;;5135282;27;20353;-86
2023/02/23 01:40:29;;;;;;;4.15;2.95;;;6.80;97.30;;;;;;5125713;27;20437;-85
2023/02/23 01:42:57;;;;;;;7.50;4.75;;;6.80;97.30;;;;;;5136254;27;20406;-83
2023/02/23 01:45:33;;;;;;;6.50;5.20;;;6.70;97.30;;;;;;5117338;27;20376;-83
2023/02/23 01:48:06;;;;;;;10.25;6.30;;;6.70;97.30;;;;;;5124846;27;20511;-84
2023/02/23 01:50:57;;;;;;;5.20;4.50;;;6.70;97.30;;;;;;5142760;27;20738;-84
2023/02/23 01:53:25;;;;;;;;;;;6.60;97.30;;;;;;5107801;27;20448;-83
2023/02/23 01:55:55;;;;;;;6.20;5.25;;;6.60;97.30;;;;;;5124134;27;20441;-83
2023/02/23 01:58:22;;;;;;;6.03;3.10;;;6.60;97.30;;;;;;5129556;27;20428;-84
2023/02/23 02:00:53;;;;;;;7.60;5.00;;;6.60;97.30;;;;;;5117069;27;20463;-85
2023/02/23 02:03:38;;;;;;;9.07;5.67;;;6.60;97.30;;;;;;5115903;28;20390;-83
2023/02/23 02:06:08;;;;;;;7.65;5.15;;;6.60;97.30;;;;;;5116296;27;20727;-83
2023/02/23 02:08:43;;;;;;;7.70;4.75;;;6.50;97.30;;;;;;5107837;27;20413;-84
2023/02/23 02:11:24;;;;;;;21.50;8.23;;;6.60;97.30;;;;;;5125466;27;20819;-85
2023/02/23 02:13:52;;;;;;;8.60;5.77;;;6.50;97.30;;;;;;5112376;28;20428;-85
2023/02/23 02:16:46;;;;;;;8.13;5.43;;;6.50;97.30;;;;;;5137103;27;20439;-84
2023/02/23 02:19:39;;;;;;;7.73;5.50;;;6.60;97.30;;;;;;5132467;27;20908;-83
2023/02/23 02:22:24;;;;;;;8.70;5.30;;;6.60;97.30;;;;;;5143358;27;20459;-83
2023/02/23 02:25:14;;;;;;;6.40;3.60;;;6.60;97.30;;;;;;5110796;28;20492;-83
2023/02/23 02:28:12;;;;;;;11.55;5.45;;;6.50;97.30;;;;;;5122963;28;20438;-84
2023/02/23 02:31:01;;;;;;;11.80;4.85;;;6.50;97.30;;;;;;5123283;28;20416;-83
2023/02/23 02:33:59;;;;;;;7.15;4.80;;;6.40;97.30;;;;;;5134983;27;20505;-83
2023/02/23 02:36:42;;;;;;;2.60;2.40;;;6.40;97.30;;;;;;5133482;27;20458;-85
2023/02/23 02:39:22;;;;;;;10.55;3.75;;;6.40;97.30;;;;;;5113131;28;20541;-83
2023/02/23 02:42:10;;;;;;;10.00;5.30;;;6.40;97.30;;;;;;5129870;27;20722;-83
2023/02/23 02:44:56;;;;;;;6.20;3.75;;;6.40;97.30;;;;;;5110917;28;20418;-83
2023/02/23 02:47:37;;;;;;;3.05;2.10;;;6.40;97.30;;;;;;5142056;27;20434;-83
2023/02/23 02:50:12;;;;;;;4.55;2.55;;;6.30;97.30;;;;;;5116726;28;20413;-83
2023/02/23 02:52:54;;;;;;;7.20;3.50;;;6.30;97.30;;;;;;5108750;28;20261;-83
2023/02/23 02:55:27;;;;;;;4.70;4.40;;;6.30;97.30;;;;;;5118560;27;20456;-83
2023/02/23 02:57:57;;;;;;;6.50;3.93;;;6.30;97.30;;;;;;5129225;27;20239;-84
2023/02/23 04:19:28;;;;;;;4.70;4.20;;;6.30;97.30;;;;;;5128896;27;20395;-86
2023/02/23 04:21:54;;;;;;;6.45;5.60;;;6.30;97.30;;;;;;5117334;27;20457;-83
2023/02/23 04:24:19;;;;;;;5.00;4.60;;;6.30;97.30;;;;;;5109035;27;20169;-85
2023/02/23 04:26:45;;;;;;;4.97;4.10;;;6.30;97.30;;;;;;5112638;27;20658;-83
2023/02/23 04:29:11;;;;;;;5.05;2.90;;;6.40;97.30;;;;;;5114153;27;20411;-83
2023/02/23 04:31:37;;;;;;;6.40;5.75;;;6.40;97.30;;;;;;5124628;27;20243;-86
2023/02/23 04:34:03;;;;;;;4.55;4.35;;;6.50;97.30;;;;;;5126092;27;20388;-85
2023/02/23 04:36:29;;;;;;;4.80;4.25;;;6.50;97.30;;;;;;5137251;27;20535;-83
2023/02/23 04:38:55;;;;;;;7.15;4.40;;;6.50;97.30;;;;;;5117488;27;20460;-84
2023/02/23 04:41:20;;;;;;;6.50;4.00;;;6.50;97.30;;;;;;5112101;27;20197;-84
2023/02/23 04:43:46;;;;;;;9.90;4.50;;;6.50;97.30;;;;;;5116458;27;20301;-85
2023/02/23 04:46:11;;;;;;;11.60;4.30;;;6.50;97.30;;;;;;5119977;27;20208;-83
2023/02/23 04:48:37;;;;;;;6.00;3.95;;;6.60;97.30;;;;;;5113052;27;20159;-82
2023/02/23 04:51:03;;;;;;;4.40;3.60;;;6.60;97.30;;;;;;5107723;27;20752;-85
2023/02/23 04:53:28;;;;;;;8.70;5.60;;;6.60;97.30;;;;;;5109128;27;20775;-85
2023/02/23 04:55:54;;;;;;;6.37;5.83;;;6.60;97.30;;;;;;5109082;27;20462;-84
2023/02/23 04:58:19;;;;;;;2.83;2.63;;;6.60;97.30;;;;;;5108662;27;20188;-85
2023/02/23 05:00:48;;;;;;;4.75;4.10;;;6.60;97.30;;;;;;5117625;27;20258;-84
2023/02/23 05:03:16;;;;;;;8.70;4.65;;;6.60;97.30;;;;;;5104790;27;20179;-83
2023/02/23 05:05:42;;;;;;;8.60;5.80;;;6.70;97.30;;;;;;5114811;27;20421;-84
2023/02/23 05:08:07;;;;;;;3.70;3.50;;;6.70;97.30;;;;;;5117376;27;20787;-83
2023/02/23 05:10:33;;;;;;;11.60;5.90;;;6.60;97.30;;;;;;5127269;27;20239;-85
2023/02/23 05:12:59;;;;;;;7.90;5.60;;;6.60;97.30;;;;;;5131258;27;20224;-83
2023/02/23 05:15:28;;;;;;;7.40;5.50;;;6.60;97.30;;;;;;5120375;27;20567;-83
2023/02/23 05:17:54;;;;;;;3.57;3.37;;;6.60;97.30;;;;;;5141216;27;20549;-83
2023/02/23 05:20:20;;;;;;;5.90;5.60;;;6.60;97.30;;;;;;5125385;27;20422;-85
2023/02/23 05:22:46;;;;;;;13.70;6.75;;;6.60;97.30;;;;;;5130488;27;20486;-82
2023/02/23 05:25:11;;;;;;;8.73;4.83;;;6.60;97.30;;;;;;5128956;27;20509;-82
2023/02/23 05:27:37;;;;;;;21.45;5.35;;;6.60;97.30;;;;;;5119616;27;20678;-84
2023/02/23 05:30:06;;;;;;;15.90;6.05;;;6.70;97.30;;;;;;5121555;27;20496;-84
2023/02/23 05:32:31;;;;;;;9.55;5.55;;;6.70;97.30;;;;;;5118396;27;20838;-83
2023/02/23 05:34:57;;;;;;;11.97;4.23;;;6.70;97.30;;;;;;5122173;27;20388;-82
2023/02/23 05:37:22;;;;;;;6.73;4.67;;;6.70;97.30;;;;;;5124379;27;20196;-83
2023/02/23 05:39:48;;;;;;;6.10;4.10;;;6.70;97.30;;;;;;5119236;27;20178;-83
2023/02/23 05:42:13;;;;;;;11.73;6.83;;;6.70;97.30;;;;;;5117832;27;20740;-85
2023/02/23 05:44:39;;;;;;;4.13;3.90;;;6.70;97.30;;;;;;5118673;27;20571;-81
2023/02/23 05:47:04;;;;;;;7.80;5.85;;;6.70;97.30;;;;;;5126640;27;20271;-85
2023/02/23 05:49:30;;;;;;;3.40;3.20;;;6.60;97.30;;;;;;5117220;27;20185;-85
2023/02/23 05:51:55;;;;;;;5.70;4.60;;;6.60;97.30;;;;;;5118305;27;20177;-85
2023/02/23 05:54:21;;;;;;;9.23;5.40;;;6.50;97.30;;;;;;5116570;27;20416;-85
2023/02/23 05:56:46;;;;;;;9.60;4.20;;;6.60;97.30;;;;;;5121112;27;20595;-84
2023/02/23 05:59:12;;;;;;;8.17;5.57;;;6.60;97.30;;;;;;5121294;27;20228;-82
2023/02/23 06:01:38;;;;;;;10.87;6.00;;;6.60;97.30;;;;;;5117313;27;20193;-85
2023/02/23 06:04:04;;;;;;;5.17;2.47;;;6.60;97.30;;;;;;5123078;27;20154;-85
2023/02/23 06:06:29;;;;;;;7.15;4.60;;;6.70;97.30;;;;;;5118740;27;20190;-83
2023/02/23 06:08:55;;;;;;;7.95;6.90;;;6.70;97.30;;;;;;5127917;27;20422;-85
2023/02/23 06:11:21;;;;;;;9.65;4.35;;;6.70;97.30;;;;;;5118525;27;20583;-85
2023/02/23 06:13:46;;;;;;;4.13;3.50;;;6.70;97.30;;;;;;5127343;27;20175;-84
2023/02/23 06:16:12;;;;;;;15.20;5.50;;;6.70;97.30;;;;;;5119105;28;20709;-84
2023/02/23 06:18:37;;;;;;;6.80;4.80;;;6.70;97.30;;;;;;5117545;27;20193;-85
2023/02/23 06:21:03;;;;;;;4.07;3.83;;;6.70;97.30;;;;;;5117268;28;20196;-84
2023/02/23 06:23:29;;;;;;;7.20;5.07;;;6.70;97.30;;;;;;5123484;27;20186;-85
2023/02/23 06:25:55;;;;;;;7.60;3.67;;;6.70;97.30;;;;;;5118056;28;20173;-82
2023/02/23 06:28:21;;;;;;;6.30;4.85;;;6.70;97.30;;;;;;5121476;27;20422;-82
2023/02/23 06:30:47;;;;;;;8.93;6.20;;;6.70;97.30;;;;;;5120583;27;20455;-85
2023/02/23 06:33:13;;;;;;;12.50;8.27;;;6.80;97.30;;;;;;5132173;27;20175;-82
2023/02/23 06:35:38;;;;;;;5.70;5.40;;;6.80;97.30;;;;;;5123241;28;20972;-84
2023/02/23 06:38:05;;;;;;;12.40;6.20;;;6.80;97.30;;;;;;5110705;28;20196;-84
2023/02/23 06:40:30;;;;;;;5.10;4.00;;;6.80;97.30;;;;;;5130551;27;20255;-84
2023/02/23 06:42:56;;;;;;;8.00;5.20;;;6.90;97.30;;;;;;5122980;28;20594;-82
2023/02/23 06:45:21;;;;;;;3.30;2.85;;;6.90;97.30;;;;;;5133982;27;20209;-85
2023/02/23 06:47:47;;;;;;;4.57;3.50;;;7.00;97.30;;;;;;5126627;27;20658;-83
2023/02/23 06:50:13;;;;;;;11.57;4.13;;;7.10;97.30;;;;;;5117935;28;20610;-85
2023/02/23 06:52:39;;;;;;;9.10;4.30;;;7.20;97.30;;;;;;5123852;27;20210;-83
2023/02/23 06:55:05;;;;;;;8.25;3.90;;;7.20;97.30;;;;;;5139130;27;20457;-83
2023/02/23 06:57:31;;;;;;;11.33;4.60;;;7.30;97.30;;;;;;5140391;27;20204;-84
2023/02/23 06:59:57;;;;;;;7.10;5.00;;;7.30;97.30;;;;;;5118155;27;20774;-85
2023/02/23 07:02:22;;;;;;;6.20;3.70;;;7.40;97.30;;;;;;5118371;27;20247;-82
2023/02/23 07:04:48;;;;;;;4.00;3.67;;;7.40;97.30;;;;;;5123451;27;20164;-85
2023/02/23 07:07:13;;;;;;;9.97;7.10;;;7.50;97.30;;;;;;5128183;27;20208;-82
2023/02/23 07:09:41;;;;;;;11.90;5.20;;;7.50;97.30;;;;;;5121710;27;20249;-83
2023/02/23 07:12:08;;;;;;;2.70;2.50;;;7.60;97.30;;;;;;5135328;27;20648;-85
2023/02/23 07:14:33;;;;;;;16.95;4.40;;;7.60;97.30;;;;;;5128381;27;20398;-83
2023/02/23 07:16:59;;;;;;;10.33;4.33;;;7.70;97.30;;;;;;5128820;27;20491;-83
2023/02/23 07:19:24;;;;;;;5.90;5.03;;;7.70;97.30;;;;;;5119885;27;20180;-85
2023/02/23 07:21:50;;;;;;;14.90;5.60;;;7.80;97.30;;;;;;5120165;27;20215;-82
2023/02/23 07:24:15;;;;;;;9.90;4.27;;;7.80;97.30;;;;;;5124303;27;20284;-82
2023/02/23 07:26:46;;;;;;;5.57;4.23;;;7.90;97.30;;;;;;5131206;27;20197;-85
2023/02/23 07:29:12;;;;;;;4.10;3.87;;;7.90;97.30;;;;;;5123202;27;20171;-82
2023/02/23 07:31:38;;;;;;;5.60;3.80;;;8.00;97.30;;;;;;5128562;27;20988;-85
2023/02/23 07:34:04;;;;;;;9.90;4.47;;;8.00;97.30;;;;;;5121156;27;20467;-85
2023/02/23 07:36:30;;;;;;;5.67;3.37;;;8.10;97.30;;;;;;5120379;27;20275;-84
2023/02/23 07:38:56;;;;;;;3.07;2.87;;;8.10;97.30;;;;;;5130396;27;20482;-84
2023/02/23 07:41:21;;;;;;;11.40;4.50;;;8.20;97.30;;;;;;5132930;27;20196;-84
2023/02/23 07:43:47;;;;;;;4.60;4.30;;;8.20;97.30;;;;;;5120721;27;20218;-84
2023/02/23 07:46:14;;;;;;;5.55;3.70;;;8.20;97.30;;;;;;5126013;27;20192;-85
2023/02/23 07:48:44;;;;;;;6.63;4.13;;;8.30;97.30;;;;;;5144635;27;20744;-84
2023/02/23 07:51:16;;;;;;;7.33;6.50;;;8.30;97.30;;;;;;5119573;27;20201;-82
2023/02/23 07:53:42;;;;;;;6.85;5.05;;;8.40;97.30;;;;;;5126435;27;20441;-84
2023/02/23 07:56:10;;;;;;;5.40;4.50;;;8.40;97.30;;;;;;5126527;27;20272;-85
2023/02/23 07:58:36;;;;;;;10.17;5.33;;;8.40;97.30;;;;;;5126758;27;20221;-84
2023/02/23 08:01:02;;;;;;;6.60;5.70;;;8.50;97.30;;;;;;5129192;27;20267;-84
2023/02/23 08:03:28;;;;;;;4.10;3.85;;;8.50;97.30;;;;;;5128823;27;20206;-84
2023/02/23 08:05:54;;;;;;;16.37;5.70;;;8.60;97.30;;;;;;5126886;27;20220;-81
2023/02/23 08:08:19;;;;;;;11.65;4.85;;;8.60;97.30;;;;;;5138409;27;20227;-84
2023/02/23 08:10:47;;;;;;;7.60;3.65;;;8.70;97.30;;;;;;5129529;27;20265;-86
2023/02/23 08:13:13;;;;;;;3.75;3.35;;;8.70;97.30;;;;;;5119472;27;20190;-84
2023/02/23 08:15:38;;;;;;;7.85;4.45;;;8.80;97.30;;;;;;5115783;27;20254;-85
2023/02/23 08:18:04;;;;;;;4.20;3.80;;;8.80;97.30;;;;;;5118036;27;20213;-85
2023/02/23 08:20:29;;;;;;;8.00;5.30;;;8.90;97.30;;;;;;5117738;27;20177;-86
2023/02/23 08:22:58;;;;;;;7.70;4.40;;;8.90;97.30;;;;;;5121820;27;20651;-82
2023/02/23 08:25:26;;;;;;;5.05;3.85;;;9.00;97.30;;;;;;5121934;27;20205;-85
2023/02/23 08:27:52;;;;;;;4.85;4.05;;;9.00;97.30;;;;;;5124206;27;20389;-83
2023/02/23 08:30:21;;;;;;;4.30;3.30;;;9.10;97.30;;;;;;5127394;27;20217;-84
2023/02/23 08:32:47;;;;;;;5.50;3.40;;;9.20;97.30;;;;;;5123198;27;20240;-84
2023/02/23 08:35:13;;;;;;;3.30;2.90;;;9.20;97.30;;;;;;5120977;27;20239;-82
2023/02/23 08:37:40;;;;;;;6.40;4.40;;;9.30;97.30;;;;;;5120327;27;20247;-85
2023/02/23 08:40:06;;;;;;;8.50;5.70;;;9.40;97.30;;;;;;5122507;27;20170;-83
2023/02/23 08:42:32;;;;;;;7.50;4.00;;;9.40;97.30;;;;;;5117236;27;20283;-84
2023/02/23 08:45:00;;;;;;;7.20;4.00;;;9.50;97.30;;;;;;5116332;27;20395;-84
2023/02/23 08:47:26;;;;;;;5.90;4.50;;;9.60;97.30;;;;;;5117210;27;20582;-85
2023/02/23 08:49:53;;;;;;;4.10;3.90;;;9.60;97.30;;;;;;5126564;27;20229;-83
2023/02/23 08:52:19;;;;;;;4.65;3.50;;;9.70;97.30;;;;;;5125211;27;20190;-84
2023/02/23 08:54:44;;;;;;;10.10;5.73;;;9.80;97.30;;;;;;5122744;27;20195;-84
2023/02/23 08:57:10;;;;;;;7.80;6.17;;;9.90;97.30;;;;;;5116660;27;20628;-82
2023/02/23 08:59:38;;;;;;;4.85;4.50;;;10.00;97.30;;;;;;5119431;27;20186;-83
2023/02/23 09:02:03;;;;;;;11.90;4.45;;;10.10;97.30;;;;;;5127946;27;20253;-84
2023/02/23 09:04:34;;;;;;;8.70;5.50;;;10.10;97.30;;;;;;5116606;27;20547;-83
2023/02/23 09:07:00;;;;;;;31.63;7.53;;;10.10;97.30;;;;;;5125241;27;20212;-83
2023/02/23 09:09:25;;;;;;;6.20;4.60;;;10.20;97.30;;;;;;5122239;27;20502;-82
2023/02/23 09:11:51;;;;;;;7.73;5.10;;;10.30;97.30;;;;;;5119682;27;20692;-82
2023/02/23 09:14:16;;;;;;;8.30;5.00;;;10.30;97.30;;;;;;5120240;27;20271;-83
2023/02/23 09:16:43;;;;;;;6.70;5.50;;;10.40;97.30;;;;;;5118794;27;20296;-84
2023/02/23 09:19:09;;;;;;;8.45;6.25;;;10.50;97.30;;;;;;5122665;27;20179;-85
2023/02/23 09:21:35;;;;;;;18.73;7.03;;;10.50;97.30;;;;;;5119899;27;20268;-84
2023/02/23 09:24:01;;;;;;;5.80;4.50;;;10.60;97.30;;;;;;5120907;27;20245;-86
2023/02/23 09:26:28;;;;;;;4.10;3.55;;;10.70;97.30;;;;;;5116434;27;20197;-85
2023/02/23 09:28:54;;;;;;;4.10;3.63;;;10.80;97.30;;;;;;5119624;27;20239;-84
2023/02/23 09:31:22;;;;;;;13.60;5.57;;;10.80;97.30;;;;;;5122547;27;20422;-83
2023/02/23 09:33:49;;;;;;;12.00;6.13;;;11.00;97.30;;;;;;5139259;27;20414;-85
2023/02/23 09:36:19;;;;;;;10.60;5.27;;;11.10;97.30;;;;;;5119817;27;20507;-85
2023/02/23 09:38:48;;;;;;;8.83;5.53;;;11.20;97.30;;;;;;5135890;27;20904;-82
2023/02/23 09:41:44;;;;;;;12.43;6.20;;;11.30;97.30;;;;;;5119020;27;20450;-85
2023/02/23 09:44:29;;;;;;;14.53;5.80;;;11.40;97.30;;;;;;5115210;27;20496;-85
2023/02/23 09:47:12;;;;;;;10.07;5.03;;;11.50;97.30;;;;;;5118633;27;20228;-85
2023/02/23 09:49:41;;;;;;;8.93;5.30;;;11.50;97.30;;;;;;5121750;27;20430;-86
2023/02/23 09:52:17;;;;;;;8.40;4.10;;;11.60;97.30;;;;;;5115690;28;20579;-84
2023/02/23 09:54:43;;;;;;;9.83;5.37;;;11.70;97.30;;;;;;5127324;27;20431;-83
2023/02/23 09:57:21;;;;;;;10.17;6.53;;;11.80;97.30;;;;;;5127130;27;20997;-84
2023/02/23 09:59:47;;;;;;;11.20;4.23;;;11.70;97.30;;;;;;5123651;27;20411;-83
2023/02/23 10:02:21;;;;;;;10.47;4.73;;;11.70;97.30;;;;;;5126364;27;20796;-84
2023/02/23 10:04:58;;;;;;;29.43;13.07;;;11.80;97.30;;;;;;5119247;27;20175;-83
2023/02/23 10:07:40;;;;;;;15.13;5.67;;;11.80;97.30;;;;;;5127871;27;20437;-84
2023/02/23 10:10:21;;;;;;;11.57;5.47;;;11.90;97.30;;;;;;5113441;27;20406;-83
2023/02/23 10:13:17;;;;;;;7.00;5.57;;;11.90;97.30;;;;;;5118760;27;20501;-82
2023/02/23 10:15:49;;;;;;;7.27;5.90;;;11.90;97.30;;;;;;5125179;27;20559;-83
2023/02/23 10:18:37;;;;;;;8.20;4.80;;;12.00;97.30;;;;;;5119442;28;20760;-84
2023/02/23 10:21:09;;;;;;;8.13;5.27;;;12.00;97.30;;;;;;5116280;28;20891;-83
2023/02/23 10:23:57;;;;;;;15.67;5.80;;;12.00;97.30;;;;;;5125040;27;20409;-84
2023/02/23 10:26:29;;;;;;;13.70;7.60;;;12.00;97.30;;;;;;5112059;28;20503;-82
2023/02/23 10:28:56;;;;;;;12.87;6.87;;;12.10;97.30;;;;;;5118836;27;20935;-83
2023/02/23 10:31:41;;;;;;;11.70;8.07;;;12.10;97.30;;;;;;5123931;27;20428;-82
2023/02/23 10:34:13;;;;;;;9.43;6.20;;;12.10;97.30;;;;;;5133687;27;20576;-83
2023/02/23 10:36:57;;;;;;;13.80;9.40;;;12.20;97.30;;;;;;5125428;27;20440;-83
2023/02/23 10:39:22;;;;;;;18.07;8.67;;;12.30;97.30;;;;;;5116928;27;20414;-83
2023/02/23 10:41:48;;;;;;;14.63;8.40;;;12.40;97.30;;;;;;5128957;27;20473;-83
2023/02/23 10:44:19;;;;;;;8.90;5.13;;;12.50;97.30;;;;;;5120142;27;20177;-84
2023/02/23 10:46:48;;;;;;;13.97;7.13;;;12.60;97.30;;;;;;5120472;27;20209;-84
2023/02/23 10:49:23;;;;;;;24.40;8.63;;;12.60;97.30;;;;;;5127053;27;20481;-83
2023/02/23 10:51:51;;;;;;;14.20;9.13;;;12.60;97.30;;;;;;5121811;27;20421;-85
2023/02/23 10:54:43;;;;;;;7.90;5.90;;;12.60;97.30;;;;;;5144905;27;20525;-85
2023/02/23 10:57:12;;;;;;;11.43;7.33;;;12.60;97.30;;;;;;5118031;27;20514;-83
2023/02/23 10:59:54;;;;;;;11.67;6.80;;;12.70;97.30;;;;;;5148298;27;20987;-83
2023/02/23 11:02:24;;;;;;;16.00;6.50;;;12.70;97.30;;;;;;5128426;27;20564;-84
2023/02/23 11:04:52;;;;;;;20.47;9.53;;;12.70;97.30;;;;;;5122589;27;20425;-83
2023/02/23 11:07:28;;;;;;;10.60;6.80;;;12.80;97.30;;;;;;5121733;27;20491;-86
2023/02/23 11:09:57;;;;;;;11.73;6.13;;;12.80;97.30;;;;;;5126720;27;20414;-82
2023/02/23 11:12:40;;;;;;;12.87;7.40;;;12.90;97.30;;;;;;5124859;27;20437;-84
2023/02/23 11:15:25;;;;;;;9.50;5.90;;;12.90;97.30;;;;;;5138401;27;20512;-83
2023/02/23 11:17:57;;;;;;;17.80;7.97;;;13.00;97.30;;;;;;5149827;27;20474;-83
2023/02/23 11:20:38;;;;;;;17.77;8.40;;;13.00;97.30;;;;;;5127921;27;20430;-83
2023/02/23 11:23:18;;;;;;;10.80;6.70;;;13.00;97.30;;;;;;5119676;27;20419;-84
2023/02/23 11:25:45;;;;;;;7.07;6.67;;;13.10;97.30;;;;;;5124316;27;20434;-83
2023/02/23 11:28:20;;;;;;;24.33;9.23;;;13.00;97.30;;;;;;5135251;27;20413;-83
2023/02/23 11:30:46;;;;;;;17.07;9.90;;;13.00;97.30;;;;;;5130420;27;20434;-83
2023/02/23 11:33:18;;;;;;;9.43;7.37;;;13.00;97.30;;;;;;5150391;27;20402;-83
2023/02/23 11:35:44;;;;;;;11.07;6.90;;;12.90;97.30;;;;;;5139213;27;20411;-84
2023/02/23 11:38:21;;;;;;;17.00;8.83;;;12.90;97.30;;;;;;5143122;27;20410;-84
2023/02/23 11:41:00;;;;;;;10.33;7.00;;;12.90;97.30;;;;;;5130798;27;20418;-83
2023/02/23 11:43:26;;;;;;;13.87;9.10;;;13.00;97.30;;;;;;5125137;27;20418;-85
2023/02/23 11:45:55;;;;;;;19.17;9.07;;;13.00;97.30;;;;;;5123256;27;20772;-84
2023/02/23 11:48:58;;;;;;;16.60;9.23;;;13.00;97.30;;;;;;5126454;27;20173;-84
2023/02/23 11:51:30;;;;;;;14.37;8.27;;;13.10;97.30;;;;;;5093168;27;20452;-83
2023/02/23 11:53:57;;;;;;;17.50;7.00;;;13.10;97.30;;;;;;5129573;27;20421;-83
2023/02/23 11:56:24;;;;;;;17.77;10.20;;;13.10;97.30;;;;;;5123365;27;20534;-84
2023/02/23 11:58:52;;;;;;;13.00;8.70;;;13.20;97.30;;;;;;5118273;27;20446;-82
2023/02/23 12:01:23;;;;;;;18.20;8.13;;;13.20;97.30;;;;;;5118885;27;20447;-84
2023/02/23 12:03:56;;;;;;;25.57;10.13;;;13.20;97.30;;;;;;5128831;27;20414;-85
2023/02/23 12:06:32;;;;;;;12.43;7.37;;;13.20;97.30;;;;;;5123371;27;20747;-85
2023/02/23 12:09:26;;;;;;;19.60;10.77;;;13.20;97.30;;;;;;5126084;27;20559;-84
2023/02/23 12:12:05;;;;;;;27.10;9.20;;;13.30;97.30;;;;;;5140554;27;20422;-85
2023/02/23 12:14:52;;;;;;;13.80;9.00;;;13.20;97.30;;;;;;5122191;27;20406;-86
2023/02/23 12:17:35;;;;;;;14.10;8.27;;;13.30;97.30;;;;;;5105834;27;20444;-84
2023/02/23 12:20:02;;;;;;;23.93;10.10;;;13.30;97.30;;;;;;5121767;27;20418;-85
2023/02/23 12:22:34;;;;;;;14.47;7.90;;;13.30;97.30;;;;;;5143134;27;20467;-83
2023/02/23 12:25:10;;;;;;;21.23;9.80;;;13.30;97.30;;;;;;5139141;27;20414;-84
2023/02/23 12:27:50;;;;;;;17.63;8.83;;;13.30;97.30;;;;;;5119790;27;20449;-84
2023/02/23 12:30:36;;;;;;;15.53;5.30;;;13.40;97.30;;;;;;5115173;27;20410;-85
2023/02/23 12:33:08;;;;;;;17.60;7.10;;;13.40;97.30;;;;;;5113082;27;20415;-84
2023/02/23 12:35:59;;;;;;;23.10;11.17;;;13.40;97.30;;;;;;5141304;27;20423;-85
2023/02/23 12:38:47;;;;;;;29.73;12.23;;;13.40;97.30;;;;;;5112884;27;20427;-83
2023/02/23 12:41:19;;;;;;;19.00;12.00;;;13.40;97.30;;;;;;5111067;27;20459;-83
2023/02/23 12:43:50;;;;;;;18.43;8.40;;;13.40;97.30;;;;;;5123135;27;20507;-83
2023/02/23 12:46:46;;;;;;;16.37;8.33;;;13.30;97.30;;;;;;5120430;27;20435;-83
2023/02/23 12:49:27;;;;;;;16.47;10.40;;;13.30;97.30;;;;;;5145170;27;20417;-82
2023/02/23 12:51:59;;;;;;;16.50;7.43;;;13.20;97.30;;;;;;5116281;27;20407;-84
2023/02/23 12:54:25;;;;;;;21.03;6.97;;;13.10;97.30;;;;;;5136838;27;20410;-83
2023/02/23 12:57:12;;;;;;;25.37;9.47;;;13.10;97.30;;;;;;5126296;27;20434;-83
2023/02/23 13:00:22;;;;;;;24.60;10.13;;;13.10;97.30;;;;;;5118764;27;20180;-82
2023/02/23 13:02:54;;;;;;;12.53;7.97;;;13.10;97.30;;;;;;5125149;27;20488;-84
2023/02/23 13:05:27;;;;;;;29.90;9.80;;;13.10;97.30;;;;;;5124247;27;20424;-84
2023/02/23 13:08:08;;;;;;;18.83;8.07;;;13.10;97.30;;;;;;5123566;27;20426;-82
2023/02/23 13:10:45;;;;;;;16.17;9.17;;;13.10;97.30;;;;;;5134710;27;20501;-84
2023/02/23 13:13:30;;;;;;;14.27;7.37;;;13.10;97.30;;;;;;5145986;27;20561;-83
2023/02/23 13:16:23;;;;;;;17.87;6.47;;;13.10;97.30;;;;;;5145498;27;20922;-83
2023/02/23 13:18:58;;;;;;;14.50;6.30;;;13.10;97.30;;;;;;5145075;27;20409;-84
2023/02/23 13:21:36;;;;;;;20.60;10.60;;;13.10;97.30;;;;;;5117996;27;20450;-83
2023/02/23 13:24:09;;;;;;;10.23;6.60;;;13.10;97.30;;;;;;5121364;27;20955;-83
2023/02/23 13:27:00;;;;;;;23.07;7.90;;;13.00;97.30;;;;;;5117234;27;20435;-85
2023/02/23 13:29:41;;;;;;;25.03;8.27;;;13.00;97.30;;;;;;5111894;27;20419;-83
2023/02/23 13:32:17;;;;;;;44.67;9.17;;;13.00;97.30;;;;;;5116497;27;20808;-84
2023/02/23 13:34:59;;;;;;;35.30;8.63;;;12.90;97.30;;;;;;5116997;27;20419;-85
2023/02/23 13:37:51;;;;;;;14.40;8.30;;;12.80;97.30;;;;;;5116530;27;20442;-84
2023/02/23 13:40:27;;;;;;;18.67;8.97;;;12.70;97.30;;;;;;5119844;27;20410;-84
2023/02/23 13:43:16;;;;;;;24.67;11.47;;;12.70;97.30;;;;;;5114754;27;21006;-83
2023/02/23 13:46:17;;;;;;;31.03;12.77;;;12.70;97.30;;;;;;5112582;27;20419;-85
2023/02/23 13:49:17;;;;;;;18.40;8.63;;;12.70;97.30;;;;;;5088060;27;20467;-85
2023/02/23 13:51:49;;;;;;;20.47;11.20;;;12.70;97.30;;;;;;5121775;27;20766;-84
2023/02/23 13:54:16;;;;;;;14.67;8.07;;;12.70;97.30;;;;;;5124522;27;20410;-85
2023/02/23 13:56:47;;;;;;;21.63;10.03;;;12.80;97.30;;;;;;5128244;27;20495;-83
2023/02/23 13:59:25;;;;;;;18.37;10.73;;;12.80;97.30;;;;;;5110124;27;20499;-82
2023/02/23 14:01:52;;;;;;;25.03;9.50;;;12.80;97.30;;;;;;5123763;27;20458;-83
2023/02/23 14:04:27;;;;;;;18.87;11.30;;;12.80;97.30;;;;;;5134740;27;20420;-84
2023/02/23 14:07:10;;;;;;;19.33;11.43;;;12.80;97.30;;;;;;5118800;27;20433;-84
2023/02/23 14:09:49;;;;;;;26.50;8.97;;;12.80;97.30;;;;;;5122757;27;20880;-84
2023/02/23 14:12:41;;;;;;;15.63;9.10;;;12.90;97.30;;;;;;5121395;27;20444;-83
2023/02/23 14:15:27;;;;;;;10.17;7.57;;;12.80;97.30;;;;;;5127707;27;20415;-85
2023/02/23 14:18:02;;;;;;;28.97;12.13;;;12.80;97.30;;;;;;5112701;28;20471;-86
2023/02/23 14:21:18;;;;;;;17.63;8.80;;;12.80;97.30;;;;;;5112937;28;20407;-86
2023/02/23 14:23:47;;;;;;;15.43;9.83;;;12.80;97.30;;;;;;5093756;28;20431;-85
2023/02/23 14:26:27;;;;;;;20.30;10.00;;;12.80;97.30;;;;;;5115397;28;20463;-81
2023/02/23 14:29:18;;;;;;;18.00;9.77;;;12.80;97.30;;;;;;5113624;28;20408;-82
2023/02/23 14:31:56;;;;;;;16.57;8.77;;;12.80;97.30;;;;;;5112865;28;20415;-84